createdAt,value
2019-01-10T00:00:49.361Z,101990.97
2019-01-10T00:03:19.395Z,101985.41
2019-01-10T00:05:49.058Z,101994.52
2019-01-10T00:08:19.071Z,101997.66
2019-01-10T00:10:48.549Z,101993.53
2019-01-10T00:13:18.068Z,102005.61
2019-01-10T00:15:47.652Z,102004.91
2019-01-10T00:18:17.591Z,102007.28
2019-01-10T00:20:47.546Z,102008.36
2019-01-10T00:23:17.021Z,102008.84
2019-01-10T00:25:46.535Z,102008.69
2019-01-10T00:28:16.065Z,102010.81
2019-01-10T00:30:45.553Z,102010.42
2019-01-10T00:33:15.061Z,102015.88
2019-01-10T00:35:44.611Z,102010.90
2019-01-10T00:38:14.173Z,102023.84
2019-01-10T00:40:43.819Z,102019.91
2019-01-10T00:43:13.701Z,102019.81
2019-01-10T00:45:43.347Z,102025.36
2019-01-10T00:48:12.833Z,102024.22
2019-01-10T00:50:42.351Z,102035.53
2019-01-10T00:53:11.829Z,102034.10
2019-01-10T00:55:41.706Z,102025.38
2019-01-10T00:58:11.864Z,102028.36
2019-01-10T01:00:41.366Z,102025.95
2019-01-10T01:03:10.821Z,102041.39
2019-01-10T01:05:40.881Z,102031.42
2019-01-10T01:08:10.351Z,102035.16
2019-01-10T01:10:39.902Z,102038.41
2019-01-10T01:13:09.427Z,102043.98
2019-01-10T01:15:38.977Z,102039.95
2019-01-10T01:18:08.575Z,102042.15
2019-01-10T01:20:38.198Z,102049.15
2019-01-10T01:23:07.716Z,102053.38
2019-01-10T01:25:37.291Z,102055.86
2019-01-10T01:28:07.261Z,102069.09
2019-01-10T01:30:36.767Z,102069.94
2019-01-10T01:33:06.279Z,102068.48
2019-01-10T01:35:35.795Z,102081.91
2019-01-10T01:38:05.237Z,102085.56
2019-01-10T01:40:34.802Z,102088.16
2019-01-10T01:43:07.491Z,102090.34
2019-01-10T01:45:35.755Z,102094.40
2019-01-10T01:48:05.407Z,102099.00
2019-01-10T01:50:34.983Z,102094.78
2019-01-10T01:53:04.469Z,102094.78
2019-01-10T01:55:34.359Z,102105.32
2019-01-10T01:58:03.883Z,102104.95
2019-01-10T02:00:33.416Z,102105.42
2019-01-10T02:03:02.966Z,102106.87
2019-01-10T02:05:32.484Z,102105.80
2019-01-10T02:08:01.963Z,102109.98
2019-01-10T02:10:31.439Z,102108.34
2019-01-10T02:13:01.145Z,102111.91
2019-01-10T02:15:30.653Z,102108.55
2019-01-10T02:18:00.143Z,102110.85
2019-01-10T02:20:29.623Z,102113.14
2019-01-10T02:22:59.141Z,102114.53
2019-01-10T02:25:28.623Z,102126.78
2019-01-10T02:27:58.127Z,102124.36
2019-01-10T02:30:27.665Z,102129.66
2019-01-10T02:32:57.150Z,102141.30
2019-01-10T02:35:27.022Z,102144.25
2019-01-10T02:37:56.506Z,102149.81
2019-01-10T02:42:54.724Z,102152.78
2019-01-10T02:45:24.217Z,102153.87
2019-01-10T02:47:53.701Z,102149.57
2019-01-10T02:50:24.119Z,102147.94
2019-01-10T02:52:53.753Z,102144.03
2019-01-10T02:55:23.337Z,102149.11
2019-01-10T02:57:52.937Z,102144.81
2019-01-10T03:00:25.011Z,102152.39
2019-01-10T03:02:54.854Z,102146.95
2019-01-10T03:05:24.751Z,102145.41
2019-01-10T03:07:54.335Z,102138.91
2019-01-10T03:10:25.815Z,102144.08
2019-01-10T03:12:55.747Z,102147.12
2019-01-10T03:15:26.124Z,102146.45
2019-01-10T03:17:55.600Z,102146.94
2019-01-10T03:20:25.206Z,102139.64
2019-01-10T03:22:55.287Z,102144.33
2019-01-10T03:25:24.819Z,102136.67
2019-01-10T03:27:54.355Z,102130.80
2019-01-10T03:30:23.865Z,102130.62
2019-01-10T03:32:53.375Z,102142.48
2019-01-10T03:35:23.520Z,102142.30
2019-01-10T03:37:52.991Z,102138.23
2019-01-10T03:40:22.846Z,102139.99
2019-01-10T03:42:52.336Z,102133.70
2019-01-10T03:45:22.303Z,102134.07
2019-01-10T03:47:51.775Z,102137.16
2019-01-10T03:50:21.366Z,102140.39
2019-01-10T03:52:50.878Z,102137.52
2019-01-10T03:55:20.755Z,102134.92
2019-01-10T03:57:50.773Z,102128.14
2019-01-10T04:00:22.966Z,102136.76
2019-01-10T04:02:52.543Z,102138.20
2019-01-10T04:05:22.178Z,102138.13
2019-01-10T04:07:52.365Z,102134.87
2019-01-10T04:10:21.890Z,102129.52
2019-01-10T04:12:52.890Z,102135.55
2019-01-10T04:15:22.374Z,102134.11
2019-01-10T04:17:51.869Z,102131.42
2019-01-10T04:20:21.480Z,102131.59
2019-01-10T04:22:51.015Z,102130.16
2019-01-10T04:25:20.531Z,102124.11
2019-01-10T04:27:50.054Z,102129.27
2019-01-10T04:30:20.755Z,102132.03
2019-01-10T04:32:50.295Z,102131.94
2019-01-10T04:35:20.246Z,102131.37
2019-01-10T04:37:49.782Z,102130.25
2019-01-10T04:40:20.389Z,102134.67
2019-01-10T04:42:50.064Z,102131.90
2019-01-10T04:45:20.045Z,102126.05
2019-01-10T04:47:49.539Z,102119.72
2019-01-10T04:50:19.226Z,102125.84
2019-01-10T04:52:48.697Z,102129.55
2019-01-10T04:55:37.652Z,102129.27
2019-01-10T04:58:07.290Z,102127.25
2019-01-10T05:00:36.860Z,102123.72
2019-01-10T05:03:06.315Z,102130.88
2019-01-10T05:05:35.899Z,102132.82
2019-01-10T05:08:05.425Z,102125.95
2019-01-10T05:10:35.018Z,102130.05
2019-01-10T05:13:04.524Z,102124.59
2019-01-10T05:15:33.999Z,102135.44
2019-01-10T05:18:03.801Z,102129.50
2019-01-10T05:20:33.280Z,102125.20
2019-01-10T05:23:03.228Z,102130.22
2019-01-10T05:25:32.792Z,102131.94
2019-01-10T05:28:02.272Z,102139.04
2019-01-10T05:30:31.746Z,102134.83
2019-01-10T05:33:01.723Z,102133.56
2019-01-10T05:35:31.240Z,102139.80
2019-01-10T05:38:00.716Z,102143.80
2019-01-10T05:40:30.590Z,102142.25
2019-01-10T05:43:00.095Z,102140.44
2019-01-10T05:45:29.551Z,102147.44
2019-01-10T05:47:59.068Z,102148.20
2019-01-10T05:50:28.537Z,102150.30
2019-01-10T05:52:58.088Z,102151.14
2019-01-10T05:55:27.649Z,102155.19
2019-01-10T05:57:57.221Z,102151.41
2019-01-10T06:00:27.455Z,102157.34
2019-01-10T06:02:57.284Z,102154.41
2019-01-10T06:05:26.785Z,102156.20
2019-01-10T06:07:56.359Z,102156.83
2019-01-10T06:10:27.984Z,102168.30
2019-01-10T06:12:57.724Z,102168.22
2019-01-10T06:15:27.371Z,102171.47
2019-01-10T06:17:56.974Z,102179.60
2019-01-10T06:20:26.474Z,102176.56
2019-01-10T06:22:56.012Z,102184.31
2019-01-10T06:25:25.857Z,102187.41
2019-01-10T06:27:55.358Z,102189.34
2019-01-10T06:30:27.535Z,102191.16
2019-01-10T06:32:57.043Z,102195.10
2019-01-10T06:35:26.574Z,102201.98
2019-01-10T06:37:56.136Z,102198.83
2019-01-10T06:40:25.882Z,102197.04
2019-01-10T06:42:55.791Z,102199.78
2019-01-10T06:45:25.344Z,102199.36
2019-01-10T06:47:54.880Z,102206.07
2019-01-10T06:50:24.374Z,102210.27
2019-01-10T06:52:53.862Z,102214.74
2019-01-10T06:55:23.369Z,102216.63
2019-01-10T06:57:52.840Z,102218.38
2019-01-10T07:00:24.430Z,102219.98
2019-01-10T07:02:54.485Z,102216.41
2019-01-10T07:05:23.974Z,102225.68
2019-01-10T07:07:56.530Z,102225.95
2019-01-10T07:10:29.117Z,102232.03
2019-01-10T07:12:58.870Z,102241.87
2019-01-10T07:15:28.375Z,102237.89
2019-01-10T07:17:57.906Z,102238.47
2019-01-10T07:20:27.392Z,102244.28
2019-01-10T07:22:56.874Z,102238.47
2019-01-10T07:25:26.390Z,102241.45
2019-01-10T07:27:56.719Z,102237.58
2019-01-10T07:30:35.695Z,102246.91
2019-01-10T07:32:59.662Z,102248.80
2019-01-10T07:35:29.243Z,102245.92
2019-01-10T07:37:58.701Z,102251.86
2019-01-10T07:40:28.213Z,102247.63
2019-01-10T07:42:57.966Z,102252.23
2019-01-10T07:45:27.644Z,102247.13
2019-01-10T07:47:57.205Z,102253.64
2019-01-10T07:50:29.696Z,102252.05
2019-01-10T07:52:59.180Z,102254.12
2019-01-10T07:55:29.078Z,102255.84
2019-01-10T07:57:58.591Z,102258.38
2019-01-10T08:00:28.067Z,102257.03
2019-01-10T08:02:57.580Z,102261.63
2019-01-10T08:05:27.026Z,102259.69
2019-01-10T08:07:56.522Z,102263.56
2019-01-10T08:10:26.059Z,102265.62
2019-01-10T08:12:55.605Z,102262.28
2019-01-10T08:15:25.204Z,102268.49
2019-01-10T08:17:56.115Z,102270.81
2019-01-10T08:20:25.698Z,102267.02
2019-01-10T08:22:55.184Z,102271.43
2019-01-10T08:25:24.698Z,102272.20
2019-01-10T08:27:54.250Z,102273.87
2019-01-10T08:30:24.931Z,102272.80
2019-01-10T08:32:54.506Z,102269.16
2019-01-10T08:35:24.802Z,102276.96
2019-01-10T08:37:54.416Z,102272.57
2019-01-10T08:40:23.976Z,102271.53
2019-01-10T08:42:53.443Z,102275.14
2019-01-10T08:45:23.435Z,102270.95
2019-01-10T08:47:53.349Z,102278.98
2019-01-10T08:50:25.045Z,102279.12
2019-01-10T08:52:54.664Z,102283.05
2019-01-10T08:55:24.431Z,102281.84
2019-01-10T08:57:54.118Z,102281.64
2019-01-10T09:00:24.200Z,102284.51
2019-01-10T09:02:53.893Z,102279.41
2019-01-10T09:05:23.397Z,102285.47
2019-01-10T09:07:52.899Z,102294.66
2019-01-10T09:10:25.470Z,102293.03
2019-01-10T09:12:55.891Z,102299.58
2019-01-10T09:15:33.868Z,102303.31
2019-01-10T09:17:57.187Z,102301.50
2019-01-10T09:20:26.668Z,102302.09
2019-01-10T09:22:56.235Z,102302.09
2019-01-10T09:25:25.802Z,102306.98
2019-01-10T09:27:55.343Z,102303.83
2019-01-10T09:30:24.887Z,102311.03
2019-01-10T09:32:54.439Z,102307.19
2019-01-10T09:35:23.955Z,102308.05
2019-01-10T09:37:53.638Z,102308.44
2019-01-10T09:40:24.119Z,102313.23
2019-01-10T09:42:53.950Z,102324.94
2019-01-10T09:45:24.549Z,102317.15
2019-01-10T09:47:54.335Z,102317.94
2019-01-10T09:50:24.206Z,102319.58
2019-01-10T09:52:54.454Z,102320.91
2019-01-10T09:55:24.084Z,102316.80
2019-01-10T09:57:53.547Z,102322.29
2019-01-10T10:00:26.915Z,102321.42
2019-01-10T10:02:56.842Z,102319.28
2019-01-10T10:05:26.419Z,102320.06
2019-01-10T10:07:55.968Z,102328.59
2019-01-10T10:10:25.762Z,102323.70
2019-01-10T10:12:55.425Z,102326.03
2019-01-10T10:15:25.014Z,102330.05
2019-01-10T10:17:54.671Z,102330.30
2019-01-10T10:20:25.289Z,102331.06
2019-01-10T10:22:55.767Z,102328.07
2019-01-10T10:25:26.067Z,102331.73
2019-01-10T10:27:56.171Z,102327.25
2019-01-10T10:30:25.643Z,102329.08
2019-01-10T10:32:55.168Z,102330.94
2019-01-10T10:35:25.175Z,102330.97
2019-01-10T10:37:54.660Z,102329.72
2019-01-10T10:40:24.237Z,102330.81
2019-01-10T10:42:54.161Z,102329.62
2019-01-10T10:45:43.444Z,102324.16
2019-01-10T10:48:13.670Z,102330.10
2019-01-10T10:50:43.471Z,102324.03
2019-01-10T10:53:12.975Z,102328.73
2019-01-10T10:55:42.479Z,102321.45
2019-01-10T10:58:11.952Z,102319.17
2019-01-10T11:00:41.488Z,102308.54
2019-01-10T11:03:10.951Z,102311.55
2019-01-10T11:05:40.434Z,102306.02
2019-01-10T11:08:09.988Z,102304.71
2019-01-10T11:10:39.498Z,102308.86
2019-01-10T11:13:09.146Z,102307.77
2019-01-10T11:15:38.666Z,102311.61
2019-01-10T11:18:08.209Z,102306.11
2019-01-10T11:20:37.698Z,102311.94
2019-01-10T11:23:10.763Z,102306.59
2019-01-10T11:25:38.488Z,102301.88
2019-01-10T11:28:08.399Z,102299.07
2019-01-10T11:30:38.066Z,102306.53
2019-01-10T11:33:07.555Z,102311.81
2019-01-10T11:35:37.051Z,102307.52
2019-01-10T11:38:06.658Z,102305.70
2019-01-10T11:40:36.152Z,102305.70
2019-01-10T11:43:05.626Z,102305.02
2019-01-10T11:45:35.108Z,102304.99
2019-01-10T11:48:04.592Z,102304.55
2019-01-10T11:50:34.098Z,102298.11
2019-01-10T11:53:04.177Z,102292.82
2019-01-10T11:55:33.646Z,102289.92
2019-01-10T11:58:03.139Z,102295.23
2019-01-10T12:00:32.914Z,102290.13
2019-01-10T12:03:02.470Z,102290.33
2019-01-10T12:05:32.055Z,102280.03
2019-01-10T12:08:01.598Z,102290.94
2019-01-10T12:10:31.090Z,102282.35
2019-01-10T12:13:01.154Z,102283.58
2019-01-10T12:15:31.650Z,102281.11
2019-01-10T12:18:01.359Z,102281.75
2019-01-10T12:20:31.232Z,102285.94
2019-01-10T12:23:01.919Z,102279.95
2019-01-10T12:25:31.408Z,102278.25
2019-01-10T12:28:01.095Z,102276.00
2019-01-10T12:30:30.796Z,102275.58
2019-01-10T12:33:00.234Z,102268.34
2019-01-10T12:35:29.806Z,102270.48
2019-01-10T12:37:59.385Z,102274.61
2019-01-10T12:40:28.881Z,102266.23
2019-01-10T12:42:58.399Z,102260.52
2019-01-10T12:45:28.378Z,102260.52
2019-01-10T12:47:57.858Z,102255.77
2019-01-10T12:50:29.872Z,102259.59
2019-01-10T12:52:59.394Z,102258.73
2019-01-10T12:55:28.958Z,102265.22
2019-01-10T12:57:58.533Z,102262.55
2019-01-10T13:00:28.096Z,102258.17
2019-01-10T13:02:58.131Z,102254.48
2019-01-10T13:05:27.639Z,102244.66
2019-01-10T13:08:03.451Z,102249.09
2019-01-10T13:10:28.559Z,102248.47
2019-01-10T13:12:58.597Z,102248.48
2019-01-10T13:15:28.107Z,102240.67
2019-01-10T13:17:57.669Z,102249.47
2019-01-10T13:20:27.161Z,102244.02
2019-01-10T13:22:57.134Z,102246.45
2019-01-10T13:25:26.632Z,102244.67
2019-01-10T13:27:57.322Z,102246.39
2019-01-10T13:30:26.993Z,102242.34
2019-01-10T13:32:56.728Z,102235.01
2019-01-10T13:35:26.831Z,102235.12
2019-01-10T13:37:56.419Z,102241.22
2019-01-10T13:40:26.076Z,102238.14
2019-01-10T13:42:55.555Z,102236.41
2019-01-10T13:45:25.530Z,102240.56
2019-01-10T13:47:55.209Z,102240.56
2019-01-10T13:50:28.075Z,102235.39
2019-01-10T13:52:57.647Z,102236.07
2019-01-10T13:55:27.165Z,102241.20
2019-01-10T13:57:56.653Z,102232.59
2019-01-10T14:00:35.242Z,102229.18
2019-01-10T14:03:00.630Z,102230.52
2019-01-10T14:05:31.053Z,102229.09
2019-01-10T14:08:00.539Z,102232.31
2019-01-10T14:10:30.395Z,102233.13
2019-01-10T14:12:59.849Z,102237.88
2019-01-10T14:15:31.463Z,102237.06
2019-01-10T14:18:00.936Z,102243.27
2019-01-10T14:20:30.440Z,102233.94
2019-01-10T14:22:59.934Z,102236.23
2019-01-10T14:25:29.561Z,102244.17
2019-01-10T14:27:59.980Z,102241.50
2019-01-10T14:30:34.151Z,102246.76
2019-01-10T14:33:04.003Z,102234.78
2019-01-10T14:35:33.509Z,102236.87
2019-01-10T14:38:02.990Z,102240.27
2019-01-10T14:40:32.482Z,102236.02
2019-01-10T14:43:01.969Z,102242.23
2019-01-10T14:45:32.059Z,102231.95
2019-01-10T14:48:02.107Z,102226.70
2019-01-10T14:50:32.042Z,102234.84
2019-01-10T14:53:01.608Z,102230.43
2019-01-10T14:55:31.192Z,102234.19
2019-01-10T14:58:00.697Z,102240.20
2019-01-10T15:00:30.245Z,102241.58
2019-01-10T15:02:59.751Z,102241.81
2019-01-10T15:05:34.442Z,102234.63
2019-01-10T15:08:00.434Z,102239.98
2019-01-10T15:10:29.913Z,102240.92
2019-01-10T15:12:59.466Z,102238.95
2019-01-10T15:15:29.162Z,102241.77
2019-01-10T15:18:06.423Z,102235.31
2019-01-10T15:20:36.021Z,102232.09
2019-01-10T15:23:05.641Z,102245.83
2019-01-10T15:25:35.144Z,102240.28
2019-01-10T15:28:04.759Z,102248.03
2019-01-10T15:30:34.245Z,102239.63
2019-01-10T15:33:03.721Z,102248.69
2019-01-10T15:35:33.836Z,102247.16
2019-01-10T15:38:03.372Z,102252.33
2019-01-10T15:40:34.151Z,102245.99
2019-01-10T15:43:04.117Z,102243.11
2019-01-10T15:45:33.634Z,102238.71
2019-01-10T15:48:03.172Z,102243.33
2019-01-10T15:50:32.683Z,102227.77
2019-01-10T15:53:02.196Z,102229.97
2019-01-10T15:55:31.854Z,102223.99
2019-01-10T15:58:01.435Z,102226.59
2019-01-10T16:00:30.950Z,102223.61
2019-01-10T16:03:00.450Z,102217.28
2019-01-10T16:05:30.063Z,102209.31
2019-01-10T16:07:59.561Z,102212.85
2019-01-10T16:10:29.130Z,102217.94
2019-01-10T16:12:58.685Z,102221.03
2019-01-10T16:15:28.177Z,102229.11
2019-01-10T16:17:57.684Z,102222.30
2019-01-10T16:20:27.837Z,102226.64
2019-01-10T16:22:57.375Z,102219.72
2019-01-10T16:25:26.980Z,102215.12
2019-01-10T16:27:56.494Z,102211.27
2019-01-10T16:30:28.582Z,102220.20
2019-01-10T16:32:58.114Z,102221.44
2019-01-10T16:35:28.803Z,102230.67
2019-01-10T16:37:58.351Z,102227.80
2019-01-10T16:40:29.543Z,102220.13
2019-01-10T16:42:59.314Z,102220.59
2019-01-10T16:45:29.568Z,102220.12
2019-01-10T16:47:59.149Z,102217.63
2019-01-10T16:50:28.722Z,102217.33
2019-01-10T16:52:58.265Z,102208.89
2019-01-10T16:55:27.748Z,102209.95
2019-01-10T16:57:57.353Z,102212.63
2019-01-10T17:00:30.449Z,102208.36
2019-01-10T17:03:00.100Z,102203.95
2019-01-10T17:05:29.607Z,102199.53
2019-01-10T17:07:59.168Z,102203.90
2019-01-10T17:10:28.749Z,102199.77
2019-01-10T17:12:58.727Z,102203.70
2019-01-10T17:15:28.278Z,102206.00
2019-01-10T17:17:57.756Z,102204.71
2019-01-10T17:20:28.295Z,102197.13
2019-01-10T17:22:57.814Z,102203.36
2019-01-10T17:25:27.345Z,102197.80
2019-01-10T17:27:56.853Z,102197.41
2019-01-10T17:30:30.177Z,102198.66
2019-01-10T17:32:59.654Z,102199.52
2019-01-10T17:35:32.640Z,102198.28
2019-01-10T17:38:03.058Z,102192.16
2019-01-10T17:40:32.953Z,102190.81
2019-01-10T17:43:03.195Z,102184.57
2019-01-10T17:45:33.983Z,102197.41
2019-01-10T17:48:03.676Z,102196.44
2019-01-10T17:50:33.185Z,102199.91
2019-01-10T17:53:02.691Z,102200.59
2019-01-10T17:55:32.160Z,102201.06
2019-01-10T17:58:02.058Z,102174.97
2019-01-10T18:00:32.505Z,102181.69
2019-01-10T18:03:02.105Z,102178.23
2019-01-10T18:05:31.596Z,102186.20
2019-01-10T18:08:01.381Z,102189.79
2019-01-10T18:10:31.059Z,102194.36
2019-01-10T18:13:00.600Z,102188.41
2019-01-10T18:15:31.505Z,102186.66
2019-01-10T18:18:00.961Z,102184.58
2019-01-10T18:20:36.078Z,102176.39
2019-01-10T18:23:06.678Z,102188.21
2019-01-10T18:25:36.152Z,102183.31
2019-01-10T18:28:06.444Z,102176.86
2019-01-10T18:30:36.206Z,102175.44
2019-01-10T18:33:05.695Z,102190.31
2019-01-10T18:35:35.877Z,102185.87
2019-01-10T18:38:05.567Z,102184.26
2019-01-10T18:40:35.140Z,102181.86
2019-01-10T18:43:04.956Z,102183.70
2019-01-10T18:45:34.486Z,102183.98
2019-01-10T18:48:03.983Z,102177.06
2019-01-10T18:50:33.551Z,102176.89
2019-01-10T18:53:03.035Z,102183.03
2019-01-10T18:55:32.544Z,102179.56
2019-01-10T18:58:02.096Z,102177.05
2019-01-10T19:00:32.122Z,102182.89
2019-01-10T19:03:02.001Z,102184.94
2019-01-10T19:05:31.653Z,102185.11
2019-01-10T19:08:01.167Z,102185.08
2019-01-10T19:10:30.668Z,102187.21
2019-01-10T19:13:00.187Z,102190.02
2019-01-10T19:15:29.759Z,102193.48
2019-01-10T19:18:03.319Z,102198.56
2019-01-10T19:20:30.533Z,102206.71
2019-01-10T19:23:00.088Z,102206.24
2019-01-10T19:25:29.591Z,102206.34
2019-01-10T19:27:59.484Z,102211.67
2019-01-10T19:30:31.018Z,102204.09
2019-01-10T19:33:01.434Z,102205.10
2019-01-10T19:35:31.305Z,102216.42
2019-01-10T19:38:00.776Z,102218.14
2019-01-10T19:40:30.265Z,102222.94
2019-01-10T19:42:59.773Z,102223.14
2019-01-10T19:45:29.348Z,102221.98
2019-01-10T19:47:58.845Z,102221.40
2019-01-10T19:50:28.539Z,102224.10
2019-01-10T19:52:58.100Z,102229.16
2019-01-10T19:55:27.822Z,102226.01
2019-01-10T19:57:57.307Z,102225.20
2019-01-10T20:00:36.813Z,102220.63
2019-01-10T20:03:25.864Z,102219.67
2019-01-10T20:05:55.433Z,102227.11
2019-01-10T20:08:24.936Z,102221.61
2019-01-10T20:11:01.052Z,102228.59
2019-01-10T20:13:36.051Z,102224.61
2019-01-10T20:16:06.569Z,102225.77
2019-01-10T20:18:36.149Z,102219.29
2019-01-10T20:21:07.231Z,102211.73
2019-01-10T20:23:37.340Z,102208.09
2019-01-10T20:26:06.870Z,102207.30
2019-01-10T20:28:36.376Z,102204.75
2019-01-10T20:31:06.304Z,102202.75
2019-01-10T20:33:35.761Z,102207.88
2019-01-10T20:36:05.319Z,102196.14
2019-01-10T20:38:35.390Z,102194.83
2019-01-10T20:41:04.996Z,102195.76
2019-01-10T20:43:34.483Z,102194.05
2019-01-10T20:46:04.129Z,102193.75
2019-01-10T20:48:33.701Z,102200.88
2019-01-10T20:51:03.676Z,102201.97
2019-01-10T20:53:33.390Z,102202.58
2019-01-10T20:56:02.895Z,102201.35
2019-01-10T20:58:32.402Z,102201.88
2019-01-10T21:01:01.979Z,102198.34
2019-01-10T21:03:31.487Z,102187.53
2019-01-10T21:06:00.965Z,102192.92
2019-01-10T21:08:30.640Z,102191.66
2019-01-10T21:11:00.185Z,102194.09
2019-01-10T21:13:29.742Z,102183.17
2019-01-10T21:16:00.335Z,102180.97
2019-01-10T21:18:29.873Z,102183.15
2019-01-10T21:20:59.472Z,102183.88
2019-01-10T21:23:29.077Z,102181.86
2019-01-10T21:25:58.587Z,102182.47
2019-01-10T21:28:28.054Z,102178.41
2019-01-10T21:30:57.576Z,102181.86
2019-01-10T21:33:27.062Z,102181.91
2019-01-10T21:35:56.576Z,102177.92
2019-01-10T21:38:26.166Z,102168.93
2019-01-10T21:40:55.756Z,102168.48
2019-01-10T21:43:25.278Z,102167.06
2019-01-10T21:45:54.812Z,102168.98
2019-01-10T21:48:24.737Z,102164.66
2019-01-10T21:50:57.900Z,102160.69
2019-01-10T21:53:28.186Z,102160.56
2019-01-10T21:55:58.148Z,102157.95
2019-01-10T21:58:27.631Z,102153.72
2019-01-10T22:00:57.211Z,102154.50
2019-01-10T22:03:26.666Z,102155.67
2019-01-10T22:05:56.198Z,102154.89
2019-01-10T22:08:25.656Z,102148.92
2019-01-10T22:10:55.132Z,102142.83
2019-01-10T22:13:24.688Z,102141.31
2019-01-10T22:15:54.410Z,102140.77
2019-01-10T22:18:23.894Z,102129.69
2019-01-10T22:20:53.382Z,102121.56
2019-01-10T22:23:22.878Z,102120.25
2019-01-10T22:25:52.462Z,102122.86
2019-01-10T22:28:21.903Z,102103.72
2019-01-10T22:30:51.420Z,102108.66
2019-01-10T22:33:20.908Z,102110.12
2019-01-10T22:35:50.395Z,102111.81
2019-01-10T22:38:20.119Z,102100.28
2019-01-10T22:40:49.610Z,102097.04
2019-01-10T22:43:19.180Z,102098.33
2019-01-10T22:45:48.690Z,102088.09
2019-01-10T22:48:18.185Z,102094.66
2019-01-10T22:50:48.124Z,102091.30
2019-01-10T22:53:17.653Z,102089.66
2019-01-10T22:55:47.156Z,102090.00
2019-01-10T22:58:16.692Z,102084.77
2019-01-10T23:01:00.910Z,102083.08
2019-01-10T23:03:35.074Z,102076.56
2019-01-10T23:06:05.136Z,102073.50
2019-01-10T23:08:40.358Z,102071.49
2019-01-10T23:11:14.590Z,102068.53
2019-01-10T23:13:48.926Z,102065.28
2019-01-10T23:16:21.284Z,102061.40
2019-01-10T23:18:54.258Z,102055.09
2019-01-10T23:21:22.243Z,102062.00
2019-01-10T23:23:56.890Z,102058.98
2019-01-10T23:26:26.372Z,102057.08
2019-01-10T23:28:56.149Z,102054.05
2019-01-10T23:31:25.644Z,102049.39
2019-01-10T23:33:56.835Z,102045.29
2019-01-10T23:36:26.646Z,102041.97
2019-01-10T23:39:14.994Z,102040.23
2019-01-10T23:41:44.502Z,102039.84
2019-01-10T23:44:14.049Z,102035.42
2019-01-10T23:46:43.578Z,102032.68
2019-01-10T23:49:13.073Z,102024.91
2019-01-10T23:51:42.561Z,102024.47
2019-01-10T23:54:12.483Z,102008.16
2019-01-10T23:56:42.105Z,102013.19
2019-01-10T23:59:11.584Z,102010.96
